sensor_id;sensor_type;location;lat;lon;timestamp;pressure;altitude;pressure_sealevel;temperature;humidity
43503;BME280;29098;48.184;16.298;2023-03-14T00:01:46;97710.69;;;6.95;77.47
43503;BME280;29098;48.184;16.298;2023-03-14T00:04:12;97716.16;;;7.07;77.33
43503;BME280;29098;48.184;16.298;2023-03-14T00:06:38;97708.09;;;7.02;77.21
43503;BME280;29098;48.184;16.298;2023-03-14T00:09:07;97698.75;;;6.72;78.64
43503;BME280;29098;48.184;16.298;2023-03-14T00:11:32;97681.41;;;6.64;78.36
43503;BME280;29098;48.184;16.298;2023-03-14T00:13:58;97690.66;;;6.60;79.07
43503;BME280;29098;48.184;16.298;2023-03-14T00:16:25;97671.31;;;6.54;79.13
43503;BME280;29098;48.184;16.298;2023-03-14T00:18:51;97668.09;;;6.52;79.05
43503;BME280;29098;48.184;16.298;2023-03-14T00:21:17;97661.97;;;6.32;80.07
43503;BME280;29098;48.184;16.298;2023-03-14T00:23:43;97644.06;;;6.28;80.17
43503;BME280;29098;48.184;16.298;2023-03-14T00:26:12;97645.03;;;6.27;80.09
43503;BME280;29098;48.184;16.298;2023-03-14T00:28:39;97673.63;;;6.29;81.39
43503;BME280;29098;48.184;16.298;2023-03-14T00:31:06;97661.41;;;6.01;81.94
43503;BME280;29098;48.184;16.298;2023-03-14T00:33:31;97610.97;;;5.72;82.79
43503;BME280;29098;48.184;16.298;2023-03-14T00:35:59;97648.25;;;5.87;83.27
43503;BME280;29098;48.184;16.298;2023-03-14T00:38:26;97642.97;;;6.09;82.06
43503;BME280;29098;48.184;16.298;2023-03-14T00:40:52;97632.88;;;6.06;82.29
43503;BME280;29098;48.184;16.298;2023-03-14T00:43:18;97646.25;;;5.89;83.17
43503;BME280;29098;48.184;16.298;2023-03-14T00:45:47;97633.63;;;6.00;82.45
43503;BME280;29098;48.184;16.298;2023-03-14T00:48:13;97634.44;;;6.00;82.75
43503;BME280;29098;48.184;16.298;2023-03-14T00:50:38;97614.63;;;5.78;83.58
43503;BME280;29098;48.184;16.298;2023-03-14T00:53:04;97650.66;;;5.89;84.44
43503;BME280;29098;48.184;16.298;2023-03-14T00:55:30;97622.22;;;5.72;83.98
43503;BME280;29098;48.184;16.298;2023-03-14T00:57:55;97612.22;;;5.83;83.74
43503;BME280;29098;48.184;16.298;2023-03-14T01:00:21;97603.06;;;5.65;85.04
43503;BME280;29098;48.184;16.298;2023-03-14T01:02:46;97597.69;;;5.73;84.27
43503;BME280;29098;48.184;16.298;2023-03-14T01:05:12;97597.41;;;5.55;85.45
43503;BME280;29098;48.184;16.298;2023-03-14T01:07:37;97591.00;;;5.64;85.48
43503;BME280;29098;48.184;16.298;2023-03-14T01:10:04;97575.53;;;5.62;84.83
43503;BME280;29098;48.184;16.298;2023-03-14T01:12:30;97596.78;;;5.53;86.98
43503;BME280;29098;48.184;16.298;2023-03-14T01:14:56;97568.22;;;5.51;85.83
43503;BME280;29098;48.184;16.298;2023-03-14T01:17:21;97593.59;;;5.57;85.72
43503;BME280;29098;48.184;16.298;2023-03-14T01:19:47;97571.06;;;5.56;85.55
43503;BME280;29098;48.184;16.298;2023-03-14T01:22:13;97599.59;;;5.51;86.66
43503;BME280;29098;48.184;16.298;2023-03-14T01:24:39;97595.34;;;5.43;86.48
43503;BME280;29098;48.184;16.298;2023-03-14T01:27:05;97583.81;;;5.38;87.35
43503;BME280;29098;48.184;16.298;2023-03-14T01:29:30;97558.72;;;5.08;88.53
43503;BME280;29098;48.184;16.298;2023-03-14T01:31:56;97579.56;;;5.30;87.73
43503;BME280;29098;48.184;16.298;2023-03-14T01:34:21;97563.78;;;5.16;88.40
43503;BME280;29098;48.184;16.298;2023-03-14T01:36:47;97556.97;;;5.15;88.85
43503;BME280;29098;48.184;16.298;2023-03-14T01:39:12;97540.16;;;4.96;89.74
43503;BME280;29098;48.184;16.298;2023-03-14T01:41:40;97579.75;;;5.28;88.71
43503;BME280;29098;48.184;16.298;2023-03-14T01:44:10;97562.63;;;5.26;88.46
43503;BME280;29098;48.184;16.298;2023-03-14T01:46:42;97567.38;;;5.09;90.01
43503;BME280;29098;48.184;16.298;2023-03-14T01:49:17;97549.28;;;5.07;89.53
43503;BME280;29098;48.184;16.298;2023-03-14T01:51:56;97574.38;;;5.08;90.26
43503;BME280;29098;48.184;16.298;2023-03-14T01:54:32;97565.56;;;5.09;89.28
43503;BME280;29098;48.184;16.298;2023-03-14T01:57:12;97554.25;;;5.02;89.71
43503;BME280;29098;48.184;16.298;2023-03-14T01:59:40;97556.00;;;4.94;90.18
43503;BME280;29098;48.184;16.298;2023-03-14T02:02:09;97579.84;;;5.13;89.47
43503;BME280;29098;48.184;16.298;2023-03-14T02:04:38;97553.59;;;4.93;90.32
43503;BME280;29098;48.184;16.298;2023-03-14T02:07:20;97574.78;;;5.05;90.28
43503;BME280;29098;48.184;16.298;2023-03-14T02:09:48;97551.31;;;4.83;90.76
43503;BME280;29098;48.184;16.298;2023-03-14T02:12:16;97530.81;;;4.58;91.08
43503;BME280;29098;48.184;16.298;2023-03-14T02:14:43;97585.38;;;4.75;91.76
43503;BME280;29098;48.184;16.298;2023-03-14T02:17:14;97587.91;;;4.90;91.00
43503;BME280;29098;48.184;16.298;2023-03-14T02:22:42;97579.88;;;4.91;90.71
43503;BME280;29098;48.184;16.298;2023-03-14T02:27:53;97568.69;;;4.98;90.46
43503;BME280;29098;48.184;16.298;2023-03-14T02:30:21;97564.22;;;4.91;90.67
43503;BME280;29098;48.184;16.298;2023-03-14T02:32:50;97607.78;;;5.13;90.41
43503;BME280;29098;48.184;16.298;2023-03-14T02:35:21;97594.56;;;5.21;90.23
43503;BME280;29098;48.184;16.298;2023-03-14T02:37:52;97581.03;;;5.11;90.21
43503;BME280;29098;48.184;16.298;2023-03-14T02:40:18;97613.91;;;5.55;89.29
43503;BME280;29098;48.184;16.298;2023-03-14T02:42:44;97612.38;;;5.39;89.58
43503;BME280;29098;48.184;16.298;2023-03-14T02:47:39;97594.97;;;5.18;90.13
43503;BME280;29098;48.184;16.298;2023-03-14T02:50:13;97606.69;;;5.29;90.31
43503;BME280;29098;48.184;16.298;2023-03-14T02:52:47;97621.72;;;5.27;90.38
43503;BME280;29098;48.184;16.298;2023-03-14T02:55:14;97619.19;;;5.33;90.53
43503;BME280;29098;48.184;16.298;2023-03-14T02:57:40;97606.19;;;5.18;90.66
43503;BME280;29098;48.184;16.298;2023-03-14T03:00:06;97654.75;;;5.34;90.49
43503;BME280;29098;48.184;16.298;2023-03-14T03:02:32;97673.06;;;5.34;90.75
43503;BME280;29098;48.184;16.298;2023-03-14T03:04:58;97657.25;;;5.21;90.92
43503;BME280;29098;48.184;16.298;2023-03-14T03:07:23;97667.44;;;5.38;90.67
43503;BME280;29098;48.184;16.298;2023-03-14T03:09:49;97685.50;;;5.32;90.75
43503;BME280;29098;48.184;16.298;2023-03-14T03:12:15;97675.06;;;5.32;90.55
43503;BME280;29098;48.184;16.298;2023-03-14T03:14:40;97670.75;;;5.25;91.50
43503;BME280;29098;48.184;16.298;2023-03-14T03:17:06;97674.22;;;5.32;90.67
43503;BME280;29098;48.184;16.298;2023-03-14T03:19:33;97651.72;;;5.31;90.26
43503;BME280;29098;48.184;16.298;2023-03-14T03:21:59;97709.94;;;5.46;91.20
43503;BME280;29098;48.184;16.298;2023-03-14T03:24:25;97696.47;;;5.49;90.57
43503;BME280;29098;48.184;16.298;2023-03-14T03:26:51;97705.13;;;5.79;89.59
43503;BME280;29098;48.184;16.298;2023-03-14T03:29:16;97707.84;;;5.92;88.40
43503;BME280;29098;48.184;16.298;2023-03-14T03:31:42;97710.94;;;6.02;88.03
43503;BME280;29098;48.184;16.298;2023-03-14T03:34:10;97716.59;;;6.06;87.61
43503;BME280;29098;48.184;16.298;2023-03-14T03:36:36;97709.41;;;6.15;87.41
43503;BME280;29098;48.184;16.298;2023-03-14T03:39:01;97713.47;;;6.24;87.04
43503;BME280;29098;48.184;16.298;2023-03-14T03:41:27;97690.06;;;6.16;86.77
43503;BME280;29098;48.184;16.298;2023-03-14T03:43:53;97694.06;;;6.12;86.87
43503;BME280;29098;48.184;16.298;2023-03-14T03:46:19;97711.09;;;6.29;86.54
43503;BME280;29098;48.184;16.298;2023-03-14T03:48:45;97732.66;;;6.38;85.67
43503;BME280;29098;48.184;16.298;2023-03-14T03:51:15;97697.22;;;6.36;85.79
43503;BME280;29098;48.184;16.298;2023-03-14T03:53:42;97686.47;;;6.24;86.16
43503;BME280;29098;48.184;16.298;2023-03-14T03:56:08;97713.81;;;6.14;86.74
43503;BME280;29098;48.184;16.298;2023-03-14T03:58:34;97684.78;;;6.02;87.10
43503;BME280;29098;48.184;16.298;2023-03-14T04:01:00;97690.53;;;5.91;87.98
43503;BME280;29098;48.184;16.298;2023-03-14T04:03:25;97708.97;;;6.05;87.89
43503;BME280;29098;48.184;16.298;2023-03-14T04:06:03;97658.31;;;5.84;87.81
43503;BME280;29098;48.184;16.298;2023-03-14T04:08:29;97696.84;;;6.03;87.08
43503;BME280;29098;48.184;16.298;2023-03-14T04:10:58;97677.75;;;6.03;87.24
43503;BME280;29098;48.184;16.298;2023-03-14T04:13:25;97679.06;;;5.92;87.36
43503;BME280;29098;48.184;16.298;2023-03-14T04:15:51;97683.19;;;6.08;87.01
43503;BME280;29098;48.184;16.298;2023-03-14T04:18:17;97692.03;;;6.07;86.87
43503;BME280;29098;48.184;16.298;2023-03-14T04:20:43;97680.16;;;5.76;87.82
43503;BME280;29098;48.184;16.298;2023-03-14T04:23:09;97715.72;;;5.99;87.48
43503;BME280;29098;48.184;16.298;2023-03-14T04:25:34;97714.44;;;5.88;88.46
43503;BME280;29098;48.184;16.298;2023-03-14T04:28:01;97700.81;;;5.64;88.96
43503;BME280;29098;48.184;16.298;2023-03-14T04:30:26;97711.41;;;5.56;89.46
43503;BME280;29098;48.184;16.298;2023-03-14T04:32:52;97709.41;;;5.58;89.39
43503;BME280;29098;48.184;16.298;2023-03-14T04:35:17;97684.97;;;5.72;88.13
43503;BME280;29098;48.184;16.298;2023-03-14T04:37:43;97725.09;;;5.86;88.47
43503;BME280;29098;48.184;16.298;2023-03-14T04:40:09;97709.69;;;5.98;86.38
43503;BME280;29098;48.184;16.298;2023-03-14T04:42:35;97730.13;;;5.88;87.79
43503;BME280;29098;48.184;16.298;2023-03-14T04:45:01;97748.03;;;6.13;86.53
43503;BME280;29098;48.184;16.298;2023-03-14T04:47:27;97695.72;;;6.13;84.96
43503;BME280;29098;48.184;16.298;2023-03-14T04:49:52;97723.34;;;6.29;85.55
43503;BME280;29098;48.184;16.298;2023-03-14T04:52:18;97678.78;;;6.09;85.99
43503;BME280;29098;48.184;16.298;2023-03-14T04:54:43;97690.06;;;6.16;85.55
43503;BME280;29098;48.184;16.298;2023-03-14T04:57:09;97705.84;;;6.29;85.69
43503;BME280;29098;48.184;16.298;2023-03-14T04:59:34;97741.72;;;6.36;85.70
43503;BME280;29098;48.184;16.298;2023-03-14T05:02:00;97717.50;;;6.27;85.74
43503;BME280;29098;48.184;16.298;2023-03-14T05:04:25;97734.00;;;6.27;86.58
43503;BME280;29098;48.184;16.298;2023-03-14T05:06:51;97741.25;;;6.25;86.66
43503;BME280;29098;48.184;16.298;2023-03-14T05:09:17;97696.59;;;6.34;85.52
43503;BME280;29098;48.184;16.298;2023-03-14T05:11:42;97717.81;;;6.52;85.51
43503;BME280;29098;48.184;16.298;2023-03-14T05:14:08;97715.53;;;6.36;86.30
43503;BME280;29098;48.184;16.298;2023-03-14T05:16:34;97743.94;;;6.39;86.63
43503;BME280;29098;48.184;16.298;2023-03-14T05:18:59;97740.47;;;6.32;86.68
43503;BME280;29098;48.184;16.298;2023-03-14T05:21:26;97732.97;;;6.22;86.23
43503;BME280;29098;48.184;16.298;2023-03-14T05:23:52;97730.19;;;6.23;86.83
43503;BME280;29098;48.184;16.298;2023-03-14T05:26:17;97770.88;;;6.33;87.29
43503;BME280;29098;48.184;16.298;2023-03-14T05:28:43;97751.25;;;6.15;87.33
43503;BME280;29098;48.184;16.298;2023-03-14T05:31:09;97758.09;;;6.51;85.50
43503;BME280;29098;48.184;16.298;2023-03-14T05:33:35;97787.25;;;6.97;83.67
43503;BME280;29098;48.184;16.298;2023-03-14T05:36:00;97765.69;;;6.95;83.63
43503;BME280;29098;48.184;16.298;2023-03-14T05:38:26;97790.88;;;6.96;83.58
43503;BME280;29098;48.184;16.298;2023-03-14T05:40:51;97778.78;;;6.95;83.96
43503;BME280;29098;48.184;16.298;2023-03-14T05:43:17;97754.06;;;7.11;82.69
43503;BME280;29098;48.184;16.298;2023-03-14T05:45:42;97799.06;;;7.28;82.82
43503;BME280;29098;48.184;16.298;2023-03-14T05:48:08;97758.47;;;7.10;82.83
43503;BME280;29098;48.184;16.298;2023-03-14T05:50:34;97787.38;;;7.44;81.71
43503;BME280;29098;48.184;16.298;2023-03-14T05:52:59;97774.03;;;7.32;81.77
43503;BME280;29098;48.184;16.298;2023-03-14T05:55:32;97806.66;;;7.16;83.99
43503;BME280;29098;48.184;16.298;2023-03-14T05:58:02;97800.03;;;7.27;83.31
43503;BME280;29098;48.184;16.298;2023-03-14T06:00:28;97792.94;;;7.07;84.10
43503;BME280;29098;48.184;16.298;2023-03-14T06:02:53;97823.03;;;7.25;84.36
43503;BME280;29098;48.184;16.298;2023-03-14T06:05:19;97795.00;;;7.25;82.99
43503;BME280;29098;48.184;16.298;2023-03-14T06:07:45;97789.19;;;7.30;82.92
43503;BME280;29098;48.184;16.298;2023-03-14T06:10:10;97811.19;;;7.56;81.03
43503;BME280;29098;48.184;16.298;2023-03-14T06:12:36;97807.34;;;7.59;79.91
43503;BME280;29098;48.184;16.298;2023-03-14T06:15:01;97799.28;;;7.67;80.60
43503;BME280;29098;48.184;16.298;2023-03-14T06:17:27;97791.44;;;7.60;81.40
43503;BME280;29098;48.184;16.298;2023-03-14T06:19:52;97823.09;;;7.59;82.40
43503;BME280;29098;48.184;16.298;2023-03-14T06:22:18;97796.44;;;7.42;82.94
43503;BME280;29098;48.184;16.298;2023-03-14T06:24:44;97811.41;;;7.68;80.35
43503;BME280;29098;48.184;16.298;2023-03-14T06:27:10;97799.69;;;7.71;80.03
43503;BME280;29098;48.184;16.298;2023-03-14T06:29:36;97812.00;;;7.84;80.38
43503;BME280;29098;48.184;16.298;2023-03-14T06:32:01;97810.00;;;7.86;79.62
43503;BME280;29098;48.184;16.298;2023-03-14T06:34:27;97788.22;;;7.85;79.95
43503;BME280;29098;48.184;16.298;2023-03-14T06:36:53;97814.22;;;8.00;78.42
43503;BME280;29098;48.184;16.298;2023-03-14T06:39:18;97834.00;;;8.16;78.07
43503;BME280;29098;48.184;16.298;2023-03-14T06:41:44;97799.91;;;8.03;77.92
43503;BME280;29098;48.184;16.298;2023-03-14T06:44:09;97795.25;;;8.12;77.32
43503;BME280;29098;48.184;16.298;2023-03-14T06:46:35;97761.13;;;8.12;77.06
43503;BME280;29098;48.184;16.298;2023-03-14T06:49:00;97782.84;;;8.46;74.36
43503;BME280;29098;48.184;16.298;2023-03-14T06:51:26;97818.44;;;8.55;74.12
43503;BME280;29098;48.184;16.298;2023-03-14T06:53:51;97821.84;;;8.56;73.81
43503;BME280;29098;48.184;16.298;2023-03-14T06:56:17;97797.03;;;8.52;72.85
43503;BME280;29098;48.184;16.298;2023-03-14T06:58:42;97802.25;;;8.45;73.20
43503;BME280;29098;48.184;16.298;2023-03-14T07:01:22;97787.47;;;8.50;73.32
43503;BME280;29098;48.184;16.298;2023-03-14T07:03:48;97805.69;;;8.59;72.97
43503;BME280;29098;48.184;16.298;2023-03-14T07:06:13;97789.72;;;8.67;72.58
43503;BME280;29098;48.184;16.298;2023-03-14T07:08:39;97803.63;;;8.68;72.46
43503;BME280;29098;48.184;16.298;2023-03-14T07:11:05;97793.91;;;8.75;72.35
43503;BME280;29098;48.184;16.298;2023-03-14T07:13:30;97818.75;;;8.79;71.43
43503;BME280;29098;48.184;16.298;2023-03-14T07:15:56;97810.66;;;8.81;71.80
43503;BME280;29098;48.184;16.298;2023-03-14T07:18:21;97823.63;;;8.75;72.04
43503;BME280;29098;48.184;16.298;2023-03-14T07:20:47;97830.22;;;8.98;71.62
43503;BME280;29098;48.184;16.298;2023-03-14T07:23:12;97808.41;;;8.91;72.06
43503;BME280;29098;48.184;16.298;2023-03-14T07:25:38;97807.56;;;8.97;72.54
43503;BME280;29098;48.184;16.298;2023-03-14T07:28:04;97801.69;;;8.95;72.85
43503;BME280;29098;48.184;16.298;2023-03-14T07:30:29;97808.31;;;9.04;72.79
43503;BME280;29098;48.184;16.298;2023-03-14T07:32:54;97828.66;;;9.23;73.33
43503;BME280;29098;48.184;16.298;2023-03-14T07:35:20;97797.59;;;9.13;73.36
43503;BME280;29098;48.184;16.298;2023-03-14T07:37:46;97820.00;;;9.22;73.84
43503;BME280;29098;48.184;16.298;2023-03-14T07:40:11;97779.38;;;9.11;73.29
43503;BME280;29098;48.184;16.298;2023-03-14T07:42:40;97808.00;;;9.26;73.73
43503;BME280;29098;48.184;16.298;2023-03-14T07:45:07;97782.16;;;9.23;73.95
43503;BME280;29098;48.184;16.298;2023-03-14T07:47:32;97765.31;;;9.31;74.30
43503;BME280;29098;48.184;16.298;2023-03-14T07:49:58;97807.97;;;9.65;74.29
43503;BME280;29098;48.184;16.298;2023-03-14T07:52:23;97793.09;;;9.52;74.19
43503;BME280;29098;48.184;16.298;2023-03-14T07:54:49;97804.72;;;9.70;74.82
43503;BME280;29098;48.184;16.298;2023-03-14T07:57:15;97785.38;;;10.27;75.08
43503;BME280;29098;48.184;16.298;2023-03-14T07:59:41;97807.34;;;10.39;75.09
43503;BME280;29098;48.184;16.298;2023-03-14T08:02:10;97779.03;;;10.35;75.29
43503;BME280;29098;48.184;16.298;2023-03-14T08:04:37;97789.13;;;10.38;75.69
43503;BME280;29098;48.184;16.298;2023-03-14T08:07:03;97758.22;;;10.52;75.45
43503;BME280;29098;48.184;16.298;2023-03-14T08:09:28;97753.66;;;10.59;75.19
43503;BME280;29098;48.184;16.298;2023-03-14T08:11:54;97750.53;;;10.50;75.34
43503;BME280;29098;48.184;16.298;2023-03-14T08:14:19;97777.22;;;10.73;75.60
43503;BME280;29098;48.184;16.298;2023-03-14T08:16:45;97774.88;;;10.83;75.56
43503;BME280;29098;48.184;16.298;2023-03-14T08:19:10;97792.09;;;11.16;74.76
43503;BME280;29098;48.184;16.298;2023-03-14T08:21:36;97780.50;;;11.17;73.64
43503;BME280;29098;48.184;16.298;2023-03-14T08:24:02;97772.94;;;11.21;73.62
43503;BME280;29098;48.184;16.298;2023-03-14T08:26:27;97794.53;;;11.30;73.47
43503;BME280;29098;48.184;16.298;2023-03-14T08:28:52;97778.25;;;11.33;72.39
43503;BME280;29098;48.184;16.298;2023-03-14T08:31:18;97759.53;;;11.22;72.66
43503;BME280;29098;48.184;16.298;2023-03-14T08:33:44;97779.50;;;11.30;73.24
43503;BME280;29098;48.184;16.298;2023-03-14T08:36:09;97784.56;;;11.32;72.81
43503;BME280;29098;48.184;16.298;2023-03-14T08:38:35;97785.94;;;11.34;72.37
43503;BME280;29098;48.184;16.298;2023-03-14T08:41:02;97788.38;;;11.36;71.14
43503;BME280;29098;48.184;16.298;2023-03-14T08:43:28;97792.00;;;11.35;71.24
43503;BME280;29098;48.184;16.298;2023-03-14T08:45:57;97785.75;;;11.36;71.07
43503;BME280;29098;48.184;16.298;2023-03-14T08:48:23;97773.72;;;11.52;70.83
43503;BME280;29098;48.184;16.298;2023-03-14T08:50:48;97772.09;;;11.39;71.41
43503;BME280;29098;48.184;16.298;2023-03-14T08:53:14;97768.75;;;11.44;71.72
43503;BME280;29098;48.184;16.298;2023-03-14T08:55:39;97757.50;;;11.36;71.10
43503;BME280;29098;48.184;16.298;2023-03-14T08:58:05;97789.31;;;11.54;70.48
43503;BME280;29098;48.184;16.298;2023-03-14T09:00:30;97768.28;;;11.47;70.48
43503;BME280;29098;48.184;16.298;2023-03-14T09:02:56;97794.13;;;11.57;70.89
43503;BME280;29098;48.184;16.298;2023-03-14T09:05:27;97764.88;;;11.46;70.89
43503;BME280;29098;48.184;16.298;2023-03-14T09:07:53;97783.34;;;11.46;70.67
43503;BME280;29098;48.184;16.298;2023-03-14T09:10:18;97784.63;;;11.56;71.21
43503;BME280;29098;48.184;16.298;2023-03-14T09:12:44;97763.59;;;11.37;71.58
43503;BME280;29098;48.184;16.298;2023-03-14T09:15:10;97785.75;;;11.48;72.10
43503;BME280;29098;48.184;16.298;2023-03-14T09:17:36;97796.00;;;11.56;71.50
43503;BME280;29098;48.184;16.298;2023-03-14T09:20:03;97790.91;;;11.43;72.20
43503;BME280;29098;48.184;16.298;2023-03-14T09:22:31;97792.00;;;11.35;72.20
43503;BME280;29098;48.184;16.298;2023-03-14T09:24:58;97774.50;;;11.41;71.81
43503;BME280;29098;48.184;16.298;2023-03-14T09:27:24;97773.66;;;11.28;72.96
43503;BME280;29098;48.184;16.298;2023-03-14T09:29:49;97807.09;;;11.46;73.27
43503;BME280;29098;48.184;16.298;2023-03-14T09:32:14;97796.19;;;11.43;72.71
43503;BME280;29098;48.184;16.298;2023-03-14T09:34:40;97784.34;;;11.33;74.25
43503;BME280;29098;48.184;16.298;2023-03-14T09:37:05;97773.44;;;11.30;73.93
43503;BME280;29098;48.184;16.298;2023-03-14T09:39:31;97793.03;;;11.34;75.05
43503;BME280;29098;48.184;16.298;2023-03-14T09:41:58;97758.69;;;11.10;75.04
43503;BME280;29098;48.184;16.298;2023-03-14T09:44:30;97774.50;;;11.10;75.61
43503;BME280;29098;48.184;16.298;2023-03-14T09:47:02;97786.94;;;11.21;75.31
43503;BME280;29098;48.184;16.298;2023-03-14T09:49:40;97811.63;;;11.27;75.19
43503;BME280;29098;48.184;16.298;2023-03-14T09:52:13;97796.81;;;11.26;75.51
43503;BME280;29098;48.184;16.298;2023-03-14T09:54:52;97810.09;;;11.19;74.85
43503;BME280;29098;48.184;16.298;2023-03-14T09:57:22;97802.41;;;11.18;72.90
43503;BME280;29098;48.184;16.298;2023-03-14T09:59:50;97826.56;;;11.33;72.72
43503;BME280;29098;48.184;16.298;2023-03-14T10:02:25;97809.38;;;11.12;76.10
43503;BME280;29098;48.184;16.298;2023-03-14T10:04:54;97778.63;;;11.06;75.26
43503;BME280;29098;48.184;16.298;2023-03-14T10:07:31;97798.59;;;11.14;75.50
43503;BME280;29098;48.184;16.298;2023-03-14T10:09:57;97787.69;;;11.10;76.62
43503;BME280;29098;48.184;16.298;2023-03-14T10:12:34;97812.59;;;11.14;74.73
43503;BME280;29098;48.184;16.298;2023-03-14T10:15:06;97785.78;;;11.17;77.26
43503;BME280;29098;48.184;16.298;2023-03-14T10:17:39;97800.59;;;11.30;75.64
43503;BME280;29098;48.184;16.298;2023-03-14T10:20:05;97789.84;;;11.32;74.79
43503;BME280;29098;48.184;16.298;2023-03-14T10:22:32;97799.34;;;11.33;76.13
43503;BME280;29098;48.184;16.298;2023-03-14T10:25:04;97813.03;;;11.42;76.33
43503;BME280;29098;48.184;16.298;2023-03-14T10:27:32;97819.31;;;11.29;80.25
43503;BME280;29098;48.184;16.298;2023-03-14T10:30:01;97793.69;;;11.17;79.29
43503;BME280;29098;48.184;16.298;2023-03-14T10:32:38;97828.91;;;11.54;72.94
43503;BME280;29098;48.184;16.298;2023-03-14T10:37:57;97820.91;;;11.72;71.28
43503;BME280;29098;48.184;16.298;2023-03-14T10:40:28;97812.09;;;12.02;71.59
43503;BME280;29098;48.184;16.298;2023-03-14T10:42:55;97804.06;;;11.97;71.46
43503;BME280;29098;48.184;16.298;2023-03-14T10:45:35;97811.97;;;11.97;72.19
43503;BME280;29098;48.184;16.298;2023-03-14T10:48:22;97821.63;;;11.91;72.65
43503;BME280;29098;48.184;16.298;2023-03-14T10:51:10;97815.09;;;11.94;71.69
43503;BME280;29098;48.184;16.298;2023-03-14T10:56:24;97784.66;;;11.79;67.60
43503;BME280;29098;48.184;16.298;2023-03-14T10:58:57;97804.38;;;11.65;66.97
43503;BME280;29098;48.184;16.298;2023-03-14T11:01:41;97812.09;;;11.78;66.20
43503;BME280;29098;48.184;16.298;2023-03-14T11:10:02;97783.72;;;11.62;65.76
43503;BME280;29098;48.184;16.298;2023-03-14T11:21:41;97800.22;;;11.57;64.03
43503;BME280;29098;48.184;16.298;2023-03-14T11:24:43;97808.84;;;11.53;64.07
43503;BME280;29098;48.184;16.298;2023-03-14T11:27:18;97819.00;;;11.37;63.85
43503;BME280;29098;48.184;16.298;2023-03-14T11:29:59;97802.75;;;11.52;63.44
43503;BME280;29098;48.184;16.298;2023-03-14T11:40:51;97778.44;;;11.19;63.17
43503;BME280;29098;48.184;16.298;2023-03-14T11:43:31;97778.63;;;11.06;63.92
43503;BME280;29098;48.184;16.298;2023-03-14T11:46:26;97815.81;;;11.16;64.12
43503;BME280;29098;48.184;16.298;2023-03-14T11:52:00;97802.59;;;11.04;64.12
43503;BME280;29098;48.184;16.298;2023-03-14T11:57:29;97807.84;;;11.04;64.98
43503;BME280;29098;48.184;16.298;2023-03-14T12:00:17;97778.84;;;11.04;64.86
43503;BME280;29098;48.184;16.298;2023-03-14T12:05:40;97807.03;;;11.04;65.53
43503;BME280;29098;48.184;16.298;2023-03-14T12:13:10;97805.69;;;10.82;66.42
43503;BME280;29098;48.184;16.298;2023-03-14T12:15:47;97811.47;;;10.91;66.43
43503;BME280;29098;48.184;16.298;2023-03-14T12:18:32;97798.66;;;10.95;66.09
43503;BME280;29098;48.184;16.298;2023-03-14T12:21:00;97792.88;;;10.86;66.25
43503;BME280;29098;48.184;16.298;2023-03-14T12:23:35;97781.69;;;10.72;66.88
43503;BME280;29098;48.184;16.298;2023-03-14T12:29:09;97786.22;;;10.65;66.64
43503;BME280;29098;48.184;16.298;2023-03-14T12:31:41;97796.38;;;10.80;66.91
43503;BME280;29098;48.184;16.298;2023-03-14T12:44:42;97786.41;;;10.82;65.59
43503;BME280;29098;48.184;16.298;2023-03-14T12:49:44;97774.75;;;10.59;66.46
43503;BME280;29098;48.184;16.298;2023-03-14T12:52:21;97804.28;;;10.80;66.39
43503;BME280;29098;48.184;16.298;2023-03-14T12:55:07;97788.88;;;10.65;66.43
43503;BME280;29098;48.184;16.298;2023-03-14T12:57:43;97774.75;;;10.59;66.23
43503;BME280;29098;48.184;16.298;2023-03-14T13:00:20;97788.63;;;10.66;66.49
43503;BME280;29098;48.184;16.298;2023-03-14T13:02:47;97769.63;;;10.46;66.67
43503;BME280;29098;48.184;16.298;2023-03-14T13:05:20;97792.53;;;10.64;66.72
43503;BME280;29098;48.184;16.298;2023-03-14T13:10:28;97785.84;;;10.80;66.31
43503;BME280;29098;48.184;16.298;2023-03-14T13:13:20;97782.13;;;10.69;66.33
43503;BME280;29098;48.184;16.298;2023-03-14T13:15:54;97776.88;;;10.50;66.75
43503;BME280;29098;48.184;16.298;2023-03-14T13:18:30;97777.81;;;10.56;66.58
43503;BME280;29098;48.184;16.298;2023-03-14T13:21:02;97758.63;;;10.49;66.89
43503;BME280;29098;48.184;16.298;2023-03-14T13:23:31;97773.69;;;10.41;66.78
43503;BME280;29098;48.184;16.298;2023-03-14T13:25:59;97775.31;;;10.43;66.82
43503;BME280;29098;48.184;16.298;2023-03-14T13:28:26;97766.41;;;10.44;66.81
43503;BME280;29098;48.184;16.298;2023-03-14T13:30:57;97768.22;;;10.43;66.66
43503;BME280;29098;48.184;16.298;2023-03-14T13:33:23;97773.31;;;10.38;66.92
43503;BME280;29098;48.184;16.298;2023-03-14T13:38:23;97781.44;;;10.36;67.55
43503;BME280;29098;48.184;16.298;2023-03-14T13:40:51;97799.47;;;10.58;66.65
43503;BME280;29098;48.184;16.298;2023-03-14T13:43:32;97764.34;;;10.46;66.75
43503;BME280;29098;48.184;16.298;2023-03-14T13:46:05;97801.00;;;10.66;66.82
43503;BME280;29098;48.184;16.298;2023-03-14T13:48:33;97780.97;;;10.65;66.76
43503;BME280;29098;48.184;16.298;2023-03-14T13:51:06;97772.38;;;10.69;66.09
43503;BME280;29098;48.184;16.298;2023-03-14T13:53:46;97779.59;;;10.44;66.94
43503;BME280;29098;48.184;16.298;2023-03-14T13:56:12;97771.91;;;10.35;67.10
43503;BME280;29098;48.184;16.298;2023-03-14T13:58:39;97791.94;;;10.43;67.64
43503;BME280;29098;48.184;16.298;2023-03-14T14:01:10;97789.09;;;10.45;67.11
43503;BME280;29098;48.184;16.298;2023-03-14T14:03:39;97797.44;;;10.60;66.80
43503;BME280;29098;48.184;16.298;2023-03-14T14:06:27;97771.38;;;10.52;67.18
43503;BME280;29098;48.184;16.298;2023-03-14T14:09:00;97802.16;;;10.70;67.21
43503;BME280;29098;48.184;16.298;2023-03-14T14:14:12;97808.09;;;10.65;67.29
43503;BME280;29098;48.184;16.298;2023-03-14T14:16:38;97785.34;;;10.52;67.49